createdAt,value
2019-04-20T00:01:58.189Z,8.33
2019-04-20T00:04:27.186Z,8.29
2019-04-20T00:06:54.375Z,8.25
2019-04-20T00:09:25.816Z,8.22
2019-04-20T00:12:02.437Z,8.21
2019-04-20T00:14:24.595Z,8.14
2019-04-20T00:16:48.331Z,8.07
2019-04-20T00:19:22.649Z,7.96
2019-04-20T00:21:57.477Z,7.88
2019-04-20T00:24:30.629Z,7.81
2019-04-20T00:27:15.967Z,7.77
2019-04-20T00:29:41.149Z,7.75
2019-04-20T00:32:02.830Z,7.76
2019-04-20T00:34:29.456Z,7.77
2019-04-20T00:36:51.852Z,7.77
2019-04-20T00:39:20.221Z,7.76
2019-04-20T00:41:53.744Z,7.75
2019-04-20T00:44:23.303Z,7.74
2019-04-20T00:47:00.993Z,7.72
2019-04-20T00:49:30.483Z,7.68
2019-04-20T00:52:13.139Z,7.71
2019-04-20T00:54:13.579Z,7.75
2019-04-20T00:56:41.324Z,7.77
2019-04-20T00:59:25.387Z,7.78
2019-04-20T01:02:02.061Z,7.77
2019-04-20T01:04:29.858Z,7.77
2019-04-20T01:07:08.260Z,7.77
2019-04-20T01:09:41.790Z,7.77
2019-04-20T01:12:14.816Z,7.73
2019-04-20T01:14:43.701Z,7.67
2019-04-20T01:17:11.794Z,7.62
2019-04-20T01:19:35.801Z,7.59
2019-04-20T01:22:07.999Z,7.56
2019-04-20T01:24:39.169Z,7.55
2019-04-20T01:27:04.125Z,7.57
2019-04-20T01:29:38.721Z,7.49
2019-04-20T01:32:10.583Z,7.43
2019-04-20T01:34:41.407Z,7.38
2019-04-20T01:37:14.438Z,7.33
2019-04-20T01:39:35.497Z,7.30
2019-04-20T01:41:56.105Z,7.26
2019-04-20T01:44:28.155Z,7.24
2019-04-20T01:46:57.920Z,7.23
2019-04-20T01:49:25.363Z,7.18
2019-04-20T01:52:00.965Z,7.10
2019-04-20T01:54:40.930Z,7.01
2019-04-20T01:57:06.049Z,6.95
2019-04-20T01:59:46.048Z,6.92
2019-04-20T02:02:29.417Z,6.91
2019-04-20T02:05:08.780Z,6.85
2019-04-20T02:07:35.506Z,6.69
2019-04-20T02:10:02.839Z,6.55
2019-04-20T02:12:31.155Z,6.53
2019-04-20T02:15:00.467Z,6.55
2019-04-20T02:17:33.072Z,6.59
2019-04-20T02:20:12.540Z,6.62
2019-04-20T02:22:44.902Z,6.65
2019-04-20T02:24:52.766Z,6.69
2019-04-20T02:27:31.305Z,6.71
2019-04-20T02:30:13.441Z,6.67
2019-04-20T02:32:59.278Z,6.61
2019-04-20T02:36:04.160Z,6.60
2019-04-20T02:38:54.601Z,6.53
2019-04-20T02:41:20.161Z,6.44
2019-04-20T02:43:49.804Z,6.37
2019-04-20T02:46:14.788Z,6.34
2019-04-20T02:48:37.338Z,6.31
2019-04-20T02:50:58.745Z,6.30
2019-04-20T02:53:29.829Z,6.27
2019-04-20T02:56:06.325Z,6.18
2019-04-20T02:58:29.128Z,6.06
2019-04-20T03:00:46.876Z,5.98
2019-04-20T03:03:08.082Z,5.97
2019-04-20T03:05:32.985Z,6.00
2019-04-20T03:08:11.270Z,6.04
2019-04-20T03:10:46.418Z,6.09
2019-04-20T03:13:15.882Z,6.12
2019-04-20T03:15:41.865Z,6.12
2019-04-20T03:18:11.739Z,6.07
2019-04-20T03:20:43.501Z,6.06
2019-04-20T03:26:05.317Z,6.06
2019-04-20T03:28:42.964Z,6.05
2019-04-20T03:34:13.383Z,5.93
2019-04-20T03:36:25.335Z,5.90
2019-04-20T03:38:48.274Z,5.90
2019-04-20T03:41:08.183Z,5.89
2019-04-20T03:43:24.527Z,5.89
2019-04-20T03:45:59.569Z,5.91
2019-04-20T03:48:35.899Z,5.94
2019-04-20T03:51:08.940Z,5.97
2019-04-20T03:53:39.309Z,5.98
2019-04-20T03:56:29.265Z,5.98
2019-04-20T03:59:11.596Z,5.95
2019-04-20T04:02:25.179Z,5.91
2019-04-20T04:04:34.434Z,5.91
2019-04-20T04:06:50.946Z,5.90
2019-04-20T04:09:25.722Z,5.87
2019-04-20T04:11:56.002Z,5.75
2019-04-20T04:14:11.589Z,5.63
2019-04-20T04:16:46.982Z,5.55
2019-04-20T04:19:16.411Z,5.50
2019-04-20T04:21:53.903Z,5.46
2019-04-20T04:24:22.912Z,5.48
2019-04-20T04:26:51.216Z,5.50
2019-04-20T04:29:28.225Z,5.50
2019-04-20T04:32:01.358Z,5.48
2019-04-20T04:34:24.974Z,5.46
2019-04-20T04:36:57.589Z,5.46
2019-04-20T04:39:25.244Z,5.47
2019-04-20T04:41:51.880Z,5.51
2019-04-20T04:44:17.691Z,5.55
2019-04-20T04:46:29.320Z,5.60
2019-04-20T04:49:06.870Z,5.66
2019-04-20T04:51:37.842Z,5.72
2019-04-20T04:54:02.865Z,5.77
2019-04-20T04:56:25.617Z,5.82
2019-04-20T04:58:53.717Z,5.88
2019-04-20T05:01:26.019Z,5.94
2019-04-20T05:04:14.793Z,6.01
2019-04-20T05:06:33.084Z,6.07
2019-04-20T05:08:55.046Z,6.13
2019-04-20T05:11:19.603Z,6.17
2019-04-20T05:13:54.714Z,6.21
2019-04-20T05:16:35.958Z,6.29
2019-04-20T05:19:11.915Z,6.33
2019-04-20T05:22:01.096Z,6.39
2019-04-20T05:24:22.668Z,6.44
2019-04-20T05:27:03.064Z,6.47
2019-04-20T05:29:17.123Z,6.49
2019-04-20T05:31:45.980Z,6.51
2019-04-20T05:34:25.708Z,6.54
2019-04-20T05:36:57.525Z,6.57
2019-04-20T05:39:32.993Z,6.63
2019-04-20T05:41:54.177Z,6.73
2019-04-20T05:44:27.644Z,6.82
2019-04-20T05:47:02.855Z,6.92
2019-04-20T05:49:31.738Z,7.02
2019-04-20T05:51:54.353Z,7.11
2019-04-20T05:54:26.837Z,7.17
2019-04-20T05:57:00.783Z,7.21
2019-04-20T05:59:28.387Z,7.26
2019-04-20T06:02:01.762Z,7.33
2019-04-20T06:04:42.661Z,7.42
2019-04-20T06:06:56.395Z,7.51
2019-04-20T06:09:28.565Z,7.60
2019-04-20T06:12:07.510Z,7.71
2019-04-20T06:14:43.211Z,7.82
2019-04-20T06:17:28.470Z,7.93
2019-04-20T06:20:00.465Z,8.04
2019-04-20T06:22:41.459Z,8.16
2019-04-20T06:25:33.358Z,8.25
2019-04-20T06:27:45.051Z,8.34
2019-04-20T06:30:11.009Z,8.45
2019-04-20T06:33:26.267Z,8.53
2019-04-20T06:36:13.954Z,8.63
2019-04-20T06:38:38.673Z,8.72
2019-04-20T06:41:01.117Z,8.81
2019-04-20T06:43:19.742Z,8.90
2019-04-20T06:45:51.354Z,9.00
2019-04-20T06:48:21.486Z,9.12
2019-04-20T06:50:44.344Z,9.22
2019-04-20T06:53:42.187Z,9.34
2019-04-20T06:56:10.007Z,9.45
2019-04-20T07:01:09.293Z,9.65
2019-04-20T07:03:42.149Z,9.73
2019-04-20T07:06:26.333Z,9.81
2019-04-20T07:08:52.307Z,9.90
2019-04-20T07:11:04.667Z,9.99
2019-04-20T07:13:24.045Z,10.07
2019-04-20T07:16:04.053Z,10.14
2019-04-20T07:19:02.355Z,10.22
2019-04-20T07:22:01.870Z,10.28
2019-04-20T07:24:17.052Z,10.37
2019-04-20T07:26:50.254Z,10.44
2019-04-20T07:29:15.515Z,10.52
2019-04-20T07:31:41.352Z,10.59
2019-04-20T07:34:10.442Z,10.67
2019-04-20T07:36:51.502Z,10.77
2019-04-20T07:39:18.658Z,10.89
2019-04-20T07:42:06.432Z,11.02
2019-04-20T07:44:10.380Z,11.14
2019-04-20T07:46:56.375Z,11.29
2019-04-20T07:49:07.335Z,11.44
2019-04-20T07:51:25.974Z,11.61
2019-04-20T07:54:17.927Z,11.77
2019-04-20T07:56:37.051Z,11.96
2019-04-20T07:58:52.684Z,12.09
2019-04-20T08:02:00.634Z,12.22
2019-04-20T08:04:28.565Z,12.39
2019-04-20T08:06:47.000Z,12.55
2019-04-20T08:09:21.949Z,12.72
2019-04-20T08:12:03.014Z,12.87
2019-04-20T08:14:30.219Z,13.05
2019-04-20T08:19:33.515Z,13.54
2019-04-20T08:22:02.598Z,13.84
2019-04-20T08:24:21.536Z,14.16
2019-04-20T08:26:44.364Z,14.50
2019-04-20T08:29:21.485Z,14.82
2019-04-20T08:32:11.734Z,15.13
2019-04-20T08:34:43.099Z,15.41
2019-04-20T08:37:07.362Z,15.64
2019-04-20T08:39:53.374Z,15.83
2019-04-20T08:42:07.446Z,15.98
2019-04-20T08:47:14.872Z,16.20
2019-04-20T08:49:35.520Z,16.24
2019-04-20T08:52:18.842Z,16.30
2019-04-20T08:54:26.426Z,16.35
2019-04-20T08:56:47.001Z,16.39
2019-04-20T08:59:11.531Z,16.47
2019-04-20T09:01:40.687Z,16.52
2019-04-20T09:04:15.337Z,16.58
2019-04-20T09:06:55.811Z,16.65
2019-04-20T09:09:40.340Z,16.66
2019-04-20T09:11:55.106Z,16.61
2019-04-20T09:14:21.293Z,16.71
2019-04-20T09:16:59.173Z,16.88
2019-04-20T09:19:32.463Z,17.03
2019-04-20T09:22:09.834Z,17.09
2019-04-20T09:24:45.135Z,17.24
2019-04-20T09:27:10.303Z,17.41
2019-04-20T09:29:38.376Z,17.37
2019-04-20T09:32:20.889Z,17.49
2019-04-20T09:34:57.428Z,17.66
2019-04-20T09:37:43.157Z,17.95
2019-04-20T09:40:42.934Z,18.06
2019-04-20T09:43:02.641Z,18.27
2019-04-20T09:45:51.394Z,18.46
2019-04-20T09:48:23.061Z,18.65
2019-04-20T09:51:05.048Z,18.67
2019-04-20T09:53:24.747Z,18.64
2019-04-20T09:55:59.017Z,18.70
2019-04-20T09:58:24.180Z,18.96
2019-04-20T10:01:00.805Z,19.14
2019-04-20T10:03:13.086Z,19.17
2019-04-20T10:05:41.197Z,19.12
2019-04-20T10:08:10.053Z,19.30
2019-04-20T10:10:41.747Z,19.45
2019-04-20T10:13:07.319Z,19.45
2019-04-20T10:15:35.395Z,19.34
2019-04-20T10:18:03.719Z,19.32
2019-04-20T10:20:34.463Z,19.35
2019-04-20T10:23:00.518Z,19.32
2019-04-20T10:25:28.692Z,19.27
2019-04-20T10:27:55.890Z,19.16
2019-04-20T10:30:23.102Z,19.09
2019-04-20T10:32:53.788Z,19.17
2019-04-20T10:35:19.318Z,19.32
2019-04-20T10:37:51.582Z,19.39
2019-04-20T10:40:34.445Z,19.36
2019-04-20T10:42:48.108Z,19.17
2019-04-20T10:45:15.209Z,19.04
2019-04-20T10:47:43.163Z,19.01
2019-04-20T10:50:11.408Z,18.91
2019-04-20T10:52:41.587Z,18.83
2019-04-20T10:55:08.761Z,18.89
2019-04-20T10:57:35.840Z,18.93
2019-04-20T11:00:03.796Z,19.05
2019-04-20T11:02:34.958Z,19.15
2019-04-20T11:05:02.562Z,19.36
2019-04-20T11:07:30.376Z,19.64
2019-04-20T11:10:07.881Z,19.72
2019-04-20T11:12:26.578Z,19.69
2019-04-20T11:14:54.476Z,19.56
2019-04-20T11:17:22.396Z,19.41
2019-04-20T11:19:49.565Z,19.30
2019-04-20T11:22:16.741Z,19.32
2019-04-20T11:24:44.142Z,19.45
2019-04-20T11:27:12.055Z,19.63
2019-04-20T11:29:40.281Z,19.87
2019-04-20T11:32:07.556Z,20.21
2019-04-20T11:34:38.428Z,20.17
2019-04-20T11:37:04.662Z,20.12
2019-04-20T11:39:32.905Z,20.26
2019-04-20T11:42:01.463Z,20.49
2019-04-20T11:44:31.246Z,20.76
2019-04-20T11:46:58.695Z,20.98
2019-04-20T11:49:25.897Z,21.02
2019-04-20T11:51:52.996Z,21.01
2019-04-20T11:54:20.071Z,21.09
2019-04-20T11:56:47.347Z,21.14
2019-04-20T11:59:27.384Z,21.11
2019-04-20T12:02:20.113Z,21.02
2019-04-20T12:04:52.016Z,20.86
2019-04-20T12:07:15.097Z,20.69
2019-04-20T12:09:43.733Z,20.62
2019-04-20T12:12:23.452Z,20.59
2019-04-20T12:14:40.923Z,20.60
2019-04-20T12:17:08.091Z,20.67
2019-04-20T12:19:36.278Z,20.78
2019-04-20T12:22:05.496Z,20.71
2019-04-20T12:24:33.229Z,20.71
2019-04-20T12:27:00.758Z,20.80
2019-04-20T12:29:28.051Z,20.81
2019-04-20T12:31:59.170Z,20.86
2019-04-20T12:34:26.398Z,20.91
2019-04-20T12:36:53.654Z,20.99
2019-04-20T12:39:22.314Z,20.98
2019-04-20T12:41:53.602Z,21.12
2019-04-20T12:44:19.708Z,21.18
2019-04-20T12:46:47.746Z,21.18
2019-04-20T12:49:15.845Z,21.18
2019-04-20T12:51:50.764Z,21.27
2019-04-20T12:54:11.972Z,21.19
2019-04-20T12:56:40.371Z,21.11
2019-04-20T12:59:07.703Z,21.02
2019-04-20T13:01:41.444Z,21.02
2019-04-20T13:04:08.068Z,20.99
2019-04-20T13:06:39.133Z,21.24
2019-04-20T13:09:10.623Z,21.56
2019-04-20T13:11:51.668Z,21.86
2019-04-20T13:14:53.635Z,22.09
2019-04-20T13:17:22.063Z,22.00
2019-04-20T13:19:49.295Z,21.79
2019-04-20T13:22:17.046Z,21.48
2019-04-20T13:24:45.231Z,21.41
2019-04-20T13:27:14.190Z,21.55
2019-04-20T13:29:42.699Z,21.70
2019-04-20T13:32:10.229Z,21.84
2019-04-20T13:34:38.165Z,21.91
2019-04-20T13:37:06.398Z,21.89
2019-04-20T13:39:33.551Z,21.71
2019-04-20T13:42:11.495Z,21.52
2019-04-20T13:44:30.670Z,21.26
2019-04-20T13:46:58.823Z,21.06
2019-04-20T13:49:27.106Z,20.96
2019-04-20T13:51:54.913Z,20.87
2019-04-20T13:54:24.883Z,20.71
2019-04-20T13:56:52.705Z,20.71
2019-04-20T13:59:25.853Z,20.75
2019-04-20T14:02:12.983Z,20.85
2019-04-20T14:04:52.877Z,20.93
2019-04-20T14:07:22.008Z,20.89
2019-04-20T14:09:49.154Z,20.89
2019-04-20T14:12:26.152Z,20.97
2019-04-20T14:14:45.246Z,21.06
2019-04-20T14:17:15.008Z,21.15
2019-04-20T14:19:45.224Z,21.30
2019-04-20T14:22:13.204Z,21.49
2019-04-20T14:24:40.437Z,21.67
2019-04-20T14:27:08.810Z,21.93
2019-04-20T14:29:36.992Z,22.19
2019-04-20T14:32:05.990Z,22.38
2019-04-20T14:34:33.206Z,22.56
2019-04-20T14:37:00.424Z,22.63
2019-04-20T14:39:28.008Z,22.75
2019-04-20T14:41:56.264Z,22.91
2019-04-20T14:44:23.708Z,23.01
2019-04-20T14:46:51.682Z,22.96
2019-04-20T14:49:20.846Z,22.88
2019-04-20T14:51:48.025Z,22.80
2019-04-20T14:54:15.358Z,22.56
2019-04-20T14:56:43.467Z,22.44
2019-04-20T14:59:31.658Z,22.48
2019-04-20T15:02:03.233Z,22.60
2019-04-20T15:04:32.046Z,22.56
2019-04-20T15:07:00.269Z,22.33
2019-04-20T15:09:28.691Z,22.27
2019-04-20T15:11:56.952Z,22.47
2019-04-20T15:14:24.884Z,22.62
2019-04-20T15:16:52.888Z,22.76
2019-04-20T15:19:54.911Z,22.82
2019-04-20T15:22:34.224Z,22.76
2019-04-20T15:25:01.301Z,22.77
2019-04-20T15:27:28.382Z,22.77
2019-04-20T15:29:56.133Z,22.66
2019-04-20T15:32:23.342Z,22.60
2019-04-20T15:34:50.943Z,22.60
2019-04-20T15:37:18.274Z,22.70
2019-04-20T15:39:47.463Z,22.77
2019-04-20T15:42:15.069Z,22.78
2019-04-20T15:44:43.029Z,22.72
2019-04-20T15:47:11.169Z,22.66
2019-04-20T15:49:39.868Z,22.58
2019-04-20T15:52:08.064Z,22.61
2019-04-20T15:54:35.666Z,22.68
2019-04-20T15:57:12.304Z,22.76
2019-04-20T15:59:32.601Z,22.69
2019-04-20T16:02:07.307Z,22.58
2019-04-20T16:04:54.332Z,22.35
2019-04-20T16:07:21.598Z,22.11
2019-04-20T16:09:48.670Z,21.96
2019-04-20T16:12:17.075Z,21.87
2019-04-20T16:14:45.796Z,21.87
2019-04-20T16:17:13.067Z,21.86
2019-04-20T16:19:50.881Z,21.86
2019-04-20T16:22:12.004Z,21.97
2019-04-20T16:24:44.847Z,22.12
2019-04-20T16:27:31.654Z,22.28
2019-04-20T16:29:59.924Z,22.36
2019-04-20T16:32:27.084Z,22.34
2019-04-20T16:34:54.163Z,22.31
2019-04-20T16:37:22.356Z,22.28
2019-04-20T16:39:50.423Z,22.16
2019-04-20T16:42:18.266Z,22.04
2019-04-20T16:44:45.523Z,21.80
2019-04-20T16:47:12.630Z,21.63
2019-04-20T16:49:41.054Z,21.50
2019-04-20T16:52:08.317Z,21.45
2019-04-20T16:54:35.690Z,21.48
2019-04-20T16:57:04.592Z,21.46
2019-04-20T16:59:39.016Z,21.37
2019-04-20T17:02:02.356Z,21.22
2019-04-20T17:04:30.833Z,21.18
2019-04-20T17:07:18.434Z,21.15
2019-04-20T17:09:47.363Z,21.13
2019-04-20T17:12:15.448Z,21.08
2019-04-20T17:14:43.311Z,21.04
2019-04-20T17:17:11.570Z,20.97
2019-04-20T17:19:39.874Z,20.82
2019-04-20T17:22:10.007Z,20.49
2019-04-20T17:24:39.952Z,20.08
2019-04-20T17:27:21.121Z,19.69
2019-04-20T17:30:10.879Z,19.43
2019-04-20T17:32:39.258Z,19.27
2019-04-20T17:35:17.845Z,19.01
2019-04-20T17:37:39.945Z,18.82
2019-04-20T17:40:26.495Z,18.61
2019-04-20T17:42:49.656Z,18.50
2019-04-20T17:45:10.414Z,18.38
2019-04-20T17:47:50.274Z,18.31
2019-04-20T17:50:20.269Z,18.27
2019-04-20T17:52:49.584Z,18.20
2019-04-20T17:55:22.229Z,18.15
2019-04-20T17:57:37.315Z,18.10
2019-04-20T18:00:15.737Z,18.06
2019-04-20T18:03:04.562Z,18.00
2019-04-20T18:05:39.079Z,17.96
2019-04-20T18:08:10.279Z,17.88
2019-04-20T18:10:30.310Z,17.77
2019-04-20T18:12:49.780Z,17.66
2019-04-20T18:15:33.554Z,17.54
2019-04-20T18:18:24.075Z,17.44
2019-04-20T18:20:54.813Z,17.36
2019-04-20T18:23:28.114Z,17.23
2019-04-20T18:26:10.951Z,17.12
2019-04-20T18:28:47.150Z,17.00
2019-04-20T18:31:01.023Z,16.89
2019-04-20T18:33:30.367Z,16.77
2019-04-20T18:35:56.274Z,16.67
2019-04-20T18:38:26.206Z,16.57
2019-04-20T18:41:02.136Z,16.45
2019-04-20T18:43:25.589Z,16.35
2019-04-20T18:46:08.211Z,16.27
2019-04-20T18:48:43.404Z,16.17
2019-04-20T18:50:50.761Z,16.09
2019-04-20T18:53:28.642Z,15.98
2019-04-20T18:55:55.136Z,15.88
2019-04-20T18:58:19.196Z,15.77
2019-04-20T19:00:51.563Z,15.65
2019-04-20T19:03:25.020Z,15.54
2019-04-20T19:05:45.768Z,15.45
2019-04-20T19:08:15.345Z,15.35
2019-04-20T19:10:43.584Z,15.26
2019-04-20T19:13:28.617Z,15.19
2019-04-20T19:16:32.753Z,15.10
2019-04-20T19:19:24.478Z,15.02
2019-04-20T19:21:45.847Z,14.91
2019-04-20T19:24:16.927Z,14.83
2019-04-20T19:26:50.890Z,14.72
2019-04-20T19:29:23.166Z,14.62
2019-04-20T19:32:05.773Z,14.53
2019-04-20T19:34:29.618Z,14.44
2019-04-20T19:36:58.135Z,14.38
2019-04-20T19:39:26.022Z,14.33
2019-04-20T19:41:49.476Z,14.27
2019-04-20T19:44:18.932Z,14.20
2019-04-20T19:47:00.937Z,14.13
2019-04-20T19:49:21.983Z,14.01
2019-04-20T19:52:10.895Z,13.86
2019-04-20T19:54:33.034Z,13.78
2019-04-20T19:56:48.602Z,13.70
2019-04-20T19:59:16.034Z,13.65
2019-04-20T20:01:35.718Z,13.56
2019-04-20T20:04:06.418Z,13.47
2019-04-20T20:06:41.388Z,13.39
2019-04-20T20:09:07.026Z,13.28
2019-04-20T20:11:36.381Z,13.22
2019-04-20T20:14:04.296Z,13.18
2019-04-20T20:16:50.631Z,13.15
2019-04-20T20:19:07.390Z,13.12
2019-04-20T20:21:42.781Z,13.10
2019-04-20T20:23:56.625Z,13.02
2019-04-20T20:26:31.101Z,12.94
2019-04-20T20:29:05.752Z,12.89
2019-04-20T20:31:33.495Z,12.84
2019-04-20T20:34:06.033Z,12.81
2019-04-20T20:36:23.826Z,12.75
2019-04-20T20:38:52.522Z,12.72
2019-04-20T20:41:26.323Z,12.66
2019-04-20T20:44:00.124Z,12.60
2019-04-20T20:46:28.467Z,12.52
2019-04-20T20:49:16.098Z,12.47
2019-04-20T20:51:39.419Z,12.40
2019-04-20T20:53:59.292Z,12.30
2019-04-20T20:56:22.339Z,12.20
2019-04-20T20:58:53.951Z,12.13
2019-04-20T21:01:20.483Z,12.04
2019-04-20T21:03:46.108Z,11.99
2019-04-20T21:06:11.789Z,11.93
2019-04-20T21:08:45.632Z,11.90
2019-04-20T21:11:13.192Z,11.83
2019-04-20T21:13:42.847Z,11.81
2019-04-20T21:16:14.728Z,11.80
2019-04-20T21:18:50.141Z,11.75
2019-04-20T21:21:17.656Z,11.72
2019-04-20T21:23:45.953Z,11.67
2019-04-20T21:26:07.049Z,11.61
2019-04-20T21:28:36.218Z,11.56
2019-04-20T21:31:12.505Z,11.51
2019-04-20T21:33:38.091Z,11.46
2019-04-20T21:36:05.005Z,11.41
2019-04-20T21:38:37.370Z,11.36
2019-04-20T21:41:08.878Z,11.26
2019-04-20T21:43:36.422Z,11.14
2019-04-20T21:46:06.668Z,11.03
2019-04-20T21:48:49.299Z,10.97
2019-04-20T21:51:19.086Z,10.90
2019-04-20T21:53:33.670Z,10.87
2019-04-20T21:56:01.526Z,10.81
2019-04-20T21:58:35.459Z,10.75
2019-04-20T22:01:09.498Z,10.70
2019-04-20T22:03:27.230Z,10.67
2019-04-20T22:06:04.763Z,10.61
2019-04-20T22:08:32.736Z,10.52
2019-04-20T22:10:59.941Z,10.46
2019-04-20T22:13:34.407Z,10.40
2019-04-20T22:16:01.996Z,10.35
2019-04-20T22:18:25.803Z,10.30
2019-04-20T22:21:06.929Z,10.25
2019-04-20T22:23:43.393Z,10.19
2019-04-20T22:26:07.761Z,10.10
2019-04-20T22:28:22.179Z,10.05
2019-04-20T22:30:50.366Z,9.95
2019-04-20T22:33:25.020Z,9.86
2019-04-20T22:35:55.548Z,9.79
2019-04-20T22:38:45.185Z,9.72
2019-04-20T22:41:13.805Z,9.66
2019-04-20T22:43:39.771Z,9.60
2019-04-20T22:46:05.647Z,9.57
2019-04-20T22:48:33.307Z,9.55
2019-04-20T22:51:19.608Z,9.48
2019-04-20T22:53:45.385Z,9.41
2019-04-20T22:56:23.101Z,9.35
2019-04-20T22:58:40.660Z,9.27
2019-04-20T23:01:04.285Z,9.15
2019-04-20T23:03:26.923Z,9.09
2019-04-20T23:05:56.440Z,9.03
2019-04-20T23:08:24.724Z,8.96
2019-04-20T23:10:53.427Z,8.88
2019-04-20T23:13:27.702Z,8.85
2019-04-20T23:15:55.414Z,8.84
2019-04-20T23:18:19.845Z,8.85
2019-04-20T23:20:47.953Z,8.84
2019-04-20T23:23:20.665Z,8.83
2019-04-20T23:25:45.205Z,8.80
2019-04-20T23:28:14.759Z,8.78
2019-04-20T23:30:43.680Z,8.80
2019-04-20T23:33:10.216Z,8.82
2019-04-20T23:35:42.631Z,8.83
2019-04-20T23:38:11.118Z,8.82
2019-04-20T23:40:35.279Z,8.78
2019-04-20T23:43:17.732Z,8.75
2019-04-20T23:45:57.102Z,8.74
2019-04-20T23:48:34.877Z,8.71
2019-04-20T23:51:10.059Z,8.68
2019-04-20T23:53:46.775Z,8.64
2019-04-20T23:55:58.020Z,8.60
2019-04-20T23:58:26.383Z,8.57
